createdAt,value
2018-08-27T00:00:12.933Z,15.90
2018-08-27T00:02:43.028Z,15.90
2018-08-27T00:05:11.600Z,16.10
2018-08-27T00:07:39.996Z,16.10
2018-08-27T00:10:08.466Z,16.00
2018-08-27T00:12:36.854Z,15.90
2018-08-27T00:15:05.524Z,15.80
2018-08-27T00:17:33.919Z,15.80
2018-08-27T00:20:02.322Z,15.60
2018-08-27T00:22:30.741Z,15.50
2018-08-27T00:24:59.147Z,15.50
2018-08-27T00:27:27.534Z,15.40
2018-08-27T00:29:55.948Z,15.40
2018-08-27T00:32:24.372Z,15.40
2018-08-27T00:34:52.832Z,15.20
2018-08-27T00:37:21.260Z,14.90
2018-08-27T00:39:49.653Z,14.70
2018-08-27T00:42:18.141Z,14.60
2018-08-27T00:44:46.598Z,14.50
2018-08-27T00:47:15.001Z,14.50
2018-08-27T00:49:43.392Z,14.50
2018-08-27T00:52:11.948Z,14.40
2018-08-27T00:54:40.382Z,14.40
2018-08-27T00:57:08.809Z,14.40
2018-08-27T00:59:37.202Z,14.40
2018-08-27T01:02:05.809Z,14.40
2018-08-27T01:04:34.201Z,14.40
2018-08-27T01:07:02.604Z,14.30
2018-08-27T01:09:30.994Z,14.30
2018-08-27T01:11:59.388Z,14.20
2018-08-27T01:14:27.917Z,14.10
2018-08-27T01:16:56.304Z,14.00
2018-08-27T01:19:24.712Z,14.00
2018-08-27T01:21:53.129Z,13.90
2018-08-27T01:24:21.504Z,13.90
2018-08-27T01:26:49.980Z,13.90
2018-08-27T01:29:18.372Z,13.90
2018-08-27T01:31:51.968Z,13.90
2018-08-27T01:34:20.414Z,13.90
2018-08-27T01:36:48.813Z,13.90
2018-08-27T01:39:17.216Z,13.90
2018-08-27T01:41:45.618Z,13.90
2018-08-27T01:44:14.156Z,13.80
2018-08-27T01:46:42.578Z,13.60
2018-08-27T01:49:10.968Z,13.40
2018-08-27T01:51:39.504Z,13.30
2018-08-27T01:54:07.900Z,13.20
2018-08-27T01:56:36.287Z,13.10
2018-08-27T01:59:04.692Z,13.10
2018-08-27T02:01:33.152Z,13.10
2018-08-27T02:04:01.549Z,13.10
2018-08-27T02:06:35.416Z,13.00
2018-08-27T02:09:05.749Z,13.00
2018-08-27T02:11:34.157Z,13.00
2018-08-27T02:14:02.548Z,13.00
2018-08-27T02:16:30.935Z,13.00
2018-08-27T02:18:59.317Z,13.00
2018-08-27T02:21:27.729Z,13.00
2018-08-27T02:23:56.093Z,13.00
2018-08-27T02:26:25.929Z,13.00
2018-08-27T02:28:54.300Z,13.00
2018-08-27T02:31:22.884Z,13.00
2018-08-27T02:33:51.332Z,13.00
2018-08-27T02:36:19.736Z,13.10
2018-08-27T02:38:48.167Z,13.10
2018-08-27T02:41:16.590Z,13.10
2018-08-27T02:43:45.256Z,13.10
2018-08-27T02:46:13.828Z,13.10
2018-08-27T02:48:42.254Z,13.10
2018-08-27T02:51:10.648Z,13.10
2018-08-27T02:53:39.074Z,13.10
2018-08-27T02:56:07.508Z,13.00
2018-08-27T02:58:36.044Z,13.00
2018-08-27T03:01:04.456Z,13.00
2018-08-27T03:03:32.837Z,13.00
2018-08-27T03:06:01.224Z,13.00
2018-08-27T03:08:29.789Z,13.00
2018-08-27T03:10:58.196Z,13.00
2018-08-27T03:13:26.720Z,13.00
2018-08-27T03:15:55.209Z,13.00
2018-08-27T03:18:23.618Z,13.00
2018-08-27T03:20:51.944Z,13.00
2018-08-27T03:23:20.400Z,13.10
2018-08-27T03:25:48.788Z,13.10
2018-08-27T03:28:17.197Z,13.10
2018-08-27T03:30:45.600Z,13.10
2018-08-27T03:33:14.345Z,13.10
2018-08-27T03:35:42.764Z,13.20
2018-08-27T03:38:11.241Z,13.20
2018-08-27T03:40:39.680Z,13.20
2018-08-27T03:43:08.065Z,13.20
2018-08-27T03:45:36.561Z,13.30
2018-08-27T03:48:05.220Z,13.30
2018-08-27T03:50:33.621Z,13.40
2018-08-27T03:53:02.030Z,13.50
2018-08-27T03:55:30.409Z,13.50
2018-08-27T03:57:58.795Z,13.60
2018-08-27T04:00:27.189Z,13.70
2018-08-27T04:02:55.569Z,13.70
2018-08-27T04:05:24.029Z,13.80
2018-08-27T04:07:52.652Z,14.00
2018-08-27T04:10:21.119Z,14.10
2018-08-27T04:12:49.564Z,14.20
2018-08-27T04:15:18.013Z,14.20
2018-08-27T04:17:46.421Z,14.30
2018-08-27T04:20:14.826Z,14.30
2018-08-27T04:22:43.325Z,14.30
2018-08-27T04:25:11.725Z,14.40
2018-08-27T04:27:40.129Z,14.50
2018-08-27T04:30:08.921Z,14.40
2018-08-27T04:32:37.324Z,14.50
2018-08-27T04:35:05.929Z,14.50
2018-08-27T04:37:34.341Z,14.60
2018-08-27T04:40:02.804Z,14.60
2018-08-27T04:42:31.370Z,14.60
2018-08-27T04:44:59.720Z,14.60
2018-08-27T04:47:28.141Z,14.70
2018-08-27T04:49:56.565Z,14.70
2018-08-27T04:52:24.960Z,14.80
2018-08-27T04:54:53.373Z,14.80
2018-08-27T04:57:21.790Z,14.80
2018-08-27T04:59:53.776Z,14.80
2018-08-27T05:02:22.202Z,14.80
2018-08-27T05:04:50.612Z,14.90
2018-08-27T05:07:19.007Z,14.90
2018-08-27T05:09:47.403Z,14.90
2018-08-27T05:12:15.840Z,15.00
2018-08-27T05:14:44.218Z,15.00
2018-08-27T05:17:12.674Z,15.00
2018-08-27T05:19:41.064Z,15.10
2018-08-27T05:22:09.637Z,15.10
2018-08-27T05:24:38.241Z,15.20
2018-08-27T05:27:06.634Z,15.20
2018-08-27T05:29:35.099Z,15.20
2018-08-27T05:32:03.513Z,15.30
2018-08-27T05:34:31.913Z,15.30
2018-08-27T05:37:00.302Z,15.30
2018-08-27T05:39:28.732Z,15.40
2018-08-27T05:41:57.112Z,15.40
2018-08-27T05:44:25.521Z,15.40
2018-08-27T05:46:53.950Z,15.50
2018-08-27T05:49:22.340Z,15.50
2018-08-27T05:51:50.996Z,15.50
2018-08-27T05:54:19.603Z,15.50
2018-08-27T05:56:48.000Z,15.40
2018-08-27T05:59:20.709Z,15.50
2018-08-27T06:01:49.128Z,15.50
2018-08-27T06:04:17.501Z,15.50
2018-08-27T06:06:45.896Z,15.50
2018-08-27T06:09:14.371Z,15.60
2018-08-27T06:11:42.729Z,15.60
2018-08-27T06:14:11.333Z,15.70
2018-08-27T06:16:39.829Z,15.70
2018-08-27T06:19:08.149Z,15.80
2018-08-27T06:21:36.679Z,15.80
2018-08-27T06:24:05.217Z,15.90
2018-08-27T06:26:33.632Z,15.90
2018-08-27T06:29:02.032Z,15.90
2018-08-27T06:31:31.077Z,16.00
2018-08-27T06:33:59.453Z,16.00
2018-08-27T06:36:27.964Z,16.00
2018-08-27T06:38:56.498Z,16.00
2018-08-27T06:41:24.871Z,16.00
2018-08-27T06:43:53.288Z,16.00
2018-08-27T06:46:21.812Z,16.00
2018-08-27T06:48:50.091Z,16.10
2018-08-27T06:51:18.498Z,16.10
2018-08-27T06:53:46.913Z,16.10
2018-08-27T06:56:15.312Z,16.20
2018-08-27T06:58:43.717Z,16.20
2018-08-27T07:01:12.204Z,16.20
2018-08-27T07:03:40.611Z,16.30
2018-08-27T07:06:09.190Z,16.30
2018-08-27T07:08:37.722Z,16.40
2018-08-27T07:11:06.396Z,16.50
2018-08-27T07:13:34.789Z,16.50
2018-08-27T07:16:03.345Z,16.50
2018-08-27T07:18:31.756Z,16.50
2018-08-27T07:21:00.149Z,16.50
2018-08-27T07:23:28.585Z,16.50
2018-08-27T07:25:56.996Z,16.50
2018-08-27T07:28:25.725Z,16.50
2018-08-27T07:30:54.122Z,16.50
2018-08-27T07:33:22.514Z,16.60
2018-08-27T07:35:50.905Z,16.60
2018-08-27T07:38:19.340Z,16.70
2018-08-27T07:40:47.723Z,16.80
2018-08-27T07:43:16.180Z,16.80
2018-08-27T07:45:44.589Z,16.90
2018-08-27T07:48:12.992Z,16.90
2018-08-27T07:50:41.633Z,17.00
2018-08-27T07:53:10.048Z,17.10
2018-08-27T07:55:38.442Z,17.00
2018-08-27T07:58:06.869Z,16.90
2018-08-27T08:00:35.275Z,16.90
2018-08-27T08:03:03.701Z,16.90
2018-08-27T08:05:32.125Z,16.80
2018-08-27T08:08:00.547Z,16.60
2018-08-27T08:10:29.023Z,16.60
2018-08-27T08:12:57.565Z,16.50
2018-08-27T08:15:26.018Z,16.40
2018-08-27T08:17:54.606Z,16.30
2018-08-27T08:20:23.020Z,16.30
2018-08-27T08:22:51.479Z,16.50
2018-08-27T08:25:19.917Z,16.60
2018-08-27T08:27:48.379Z,16.70
2018-08-27T08:30:16.773Z,16.70
2018-08-27T08:32:45.165Z,16.80
2018-08-27T08:35:13.591Z,17.00
2018-08-27T08:37:42.001Z,17.10
2018-08-27T08:40:10.466Z,17.30
2018-08-27T08:42:38.821Z,17.50
2018-08-27T08:45:07.237Z,17.80
2018-08-27T08:47:35.672Z,17.80
2018-08-27T08:50:04.136Z,17.90
2018-08-27T08:52:32.532Z,18.20
2018-08-27T08:55:00.956Z,18.20
2018-08-27T08:57:29.343Z,18.30
2018-08-27T08:59:57.788Z,18.50
2018-08-27T09:02:26.242Z,18.60
2018-08-27T09:04:54.778Z,18.70
2018-08-27T09:07:23.315Z,18.90
2018-08-27T09:09:51.732Z,18.80
2018-08-27T09:12:20.557Z,19.00
2018-08-27T09:14:48.974Z,19.40
2018-08-27T09:17:17.524Z,19.70
2018-08-27T09:19:45.794Z,19.80
2018-08-27T09:22:14.403Z,19.80
2018-08-27T09:24:42.768Z,20.00
2018-08-27T09:27:11.181Z,20.00
2018-08-27T09:29:39.593Z,19.90
2018-08-27T09:32:08.010Z,19.90
2018-08-27T09:34:36.436Z,20.00
2018-08-27T09:37:04.904Z,20.00
2018-08-27T09:39:33.285Z,19.70
2018-08-27T09:42:01.810Z,19.70
2018-08-27T09:44:30.195Z,19.50
2018-08-27T09:46:58.729Z,19.40
2018-08-27T09:49:27.176Z,19.30
2018-08-27T09:51:55.577Z,19.20
2018-08-27T09:54:23.983Z,19.00
2018-08-27T09:56:52.384Z,18.80
2018-08-27T09:59:20.804Z,18.60
2018-08-27T10:01:54.733Z,18.40
2018-08-27T10:04:23.133Z,18.30
2018-08-27T10:06:51.589Z,18.20
2018-08-27T10:09:20.009Z,18.20
2018-08-27T10:11:48.416Z,18.20
2018-08-27T10:14:16.783Z,18.40
2018-08-27T10:16:45.373Z,18.50
2018-08-27T10:19:13.773Z,18.60
2018-08-27T10:21:42.416Z,19.00
2018-08-27T10:24:10.855Z,19.20
2018-08-27T10:26:39.262Z,19.80
2018-08-27T10:29:07.862Z,20.10
2018-08-27T10:31:36.877Z,20.80
2018-08-27T10:34:05.666Z,21.80
2018-08-27T10:36:34.174Z,23.10
2018-08-27T10:39:02.641Z,23.90
2018-08-27T10:41:31.037Z,24.00
2018-08-27T10:43:59.482Z,24.20
2018-08-27T10:46:27.893Z,24.50
2018-08-27T10:48:56.357Z,24.60
2018-08-27T10:51:24.780Z,24.00
2018-08-27T10:53:53.169Z,23.50
2018-08-27T10:56:21.581Z,23.10
2018-08-27T10:58:50.012Z,23.40
2018-08-27T11:01:18.439Z,23.50
2018-08-27T11:03:47.013Z,23.40
2018-08-27T11:06:15.526Z,22.70
2018-08-27T11:08:44.240Z,22.60
2018-08-27T11:11:12.709Z,22.60
2018-08-27T11:13:41.089Z,22.20
2018-08-27T11:16:09.559Z,22.10
2018-08-27T11:18:37.998Z,22.40
2018-08-27T11:21:06.548Z,22.10
2018-08-27T11:23:34.976Z,22.60
2018-08-27T11:26:03.417Z,22.60
2018-08-27T11:28:31.833Z,23.10
2018-08-27T11:31:00.348Z,23.30
2018-08-27T11:33:28.753Z,24.00
2018-08-27T11:35:57.155Z,24.10
2018-08-27T11:38:25.636Z,23.00
2018-08-27T11:40:54.030Z,23.10
2018-08-27T11:43:22.484Z,23.40
2018-08-27T11:45:50.871Z,23.40
2018-08-27T11:48:19.257Z,24.20
2018-08-27T11:50:47.776Z,23.80
2018-08-27T11:53:16.097Z,22.60
2018-08-27T11:55:44.561Z,23.60
2018-08-27T11:58:13.022Z,24.40
2018-08-27T12:00:46.849Z,25.70
2018-08-27T12:03:15.244Z,27.00
2018-08-27T12:05:43.652Z,26.90
2018-08-27T12:08:12.082Z,25.60
2018-08-27T12:10:40.493Z,24.60
2018-08-27T12:13:08.909Z,24.00
2018-08-27T12:15:37.336Z,23.80
2018-08-27T12:18:05.857Z,22.70
2018-08-27T12:20:34.249Z,22.40
2018-08-27T12:23:02.733Z,23.90
2018-08-27T12:25:31.170Z,25.30
2018-08-27T12:27:59.560Z,25.80
2018-08-27T12:30:27.997Z,26.00
2018-08-27T12:32:57.168Z,25.10
2018-08-27T12:35:25.592Z,24.40
2018-08-27T12:37:54.042Z,24.90
2018-08-27T12:40:22.641Z,24.90
2018-08-27T12:42:51.048Z,25.20
2018-08-27T12:45:19.487Z,25.00
2018-08-27T12:47:47.925Z,24.70
2018-08-27T12:50:16.440Z,24.10
2018-08-27T12:52:44.848Z,23.70
2018-08-27T12:55:13.343Z,23.30
2018-08-27T12:57:41.728Z,23.60
2018-08-27T13:00:15.761Z,23.20
2018-08-27T13:06:35.045Z,23.60
2018-08-27T13:09:04.073Z,23.40
2018-08-27T13:11:32.498Z,22.70
2018-08-27T13:14:00.929Z,22.60
2018-08-27T13:16:29.352Z,22.20
2018-08-27T13:18:57.919Z,22.00
2018-08-27T13:21:27.266Z,22.20
2018-08-27T13:23:56.300Z,22.40
2018-08-27T13:26:24.714Z,22.70
2018-08-27T13:28:53.128Z,22.80
2018-08-27T13:31:21.811Z,22.50
2018-08-27T13:33:50.160Z,22.50
2018-08-27T13:36:18.596Z,22.50
2018-08-27T13:38:47.500Z,22.70
2018-08-27T13:41:15.944Z,22.70
2018-08-27T13:43:44.339Z,22.80
2018-08-27T13:46:12.813Z,22.40
2018-08-27T13:48:41.287Z,22.40
2018-08-27T13:51:09.757Z,22.40
2018-08-27T13:53:38.157Z,22.40
2018-08-27T13:56:06.544Z,22.20
2018-08-27T13:58:34.949Z,22.40
2018-08-27T14:01:03.379Z,22.60
2018-08-27T14:03:31.776Z,22.50
2018-08-27T14:06:00.209Z,22.50
2018-08-27T14:08:28.624Z,23.00
2018-08-27T14:10:57.040Z,22.90
2018-08-27T14:13:25.475Z,22.80
2018-08-27T14:15:53.909Z,22.40
2018-08-27T14:18:22.309Z,22.10
2018-08-27T14:20:50.873Z,21.60
2018-08-27T14:23:19.309Z,21.40
2018-08-27T14:25:50.025Z,21.50
2018-08-27T14:28:18.400Z,21.50
2018-08-27T14:30:46.829Z,21.60
2018-08-27T14:33:15.262Z,21.70
2018-08-27T14:35:43.705Z,21.80
2018-08-27T14:38:12.188Z,21.70
2018-08-27T14:40:40.756Z,21.90
2018-08-27T14:43:09.125Z,22.10
2018-08-27T14:45:37.545Z,22.40
2018-08-27T14:48:06.046Z,22.70
2018-08-27T14:50:34.387Z,22.80
2018-08-27T14:53:02.778Z,22.90
2018-08-27T14:55:31.309Z,22.50
2018-08-27T14:57:59.689Z,22.00
2018-08-27T15:00:28.142Z,21.30
2018-08-27T15:02:56.560Z,21.20
2018-08-27T15:05:24.967Z,21.20
2018-08-27T15:07:53.409Z,21.10
2018-08-27T15:10:21.860Z,21.00
2018-08-27T15:12:52.268Z,20.90
2018-08-27T15:15:20.990Z,20.80
2018-08-27T15:17:49.392Z,20.80
2018-08-27T15:20:17.794Z,20.80
2018-08-27T15:22:46.268Z,20.80
2018-08-27T15:25:14.668Z,21.00
2018-08-27T15:27:43.154Z,20.80
2018-08-27T15:30:11.574Z,21.10
2018-08-27T15:32:40.004Z,21.10
2018-08-27T15:35:08.444Z,20.90
2018-08-27T15:37:36.825Z,20.80
2018-08-27T15:40:05.589Z,21.10
2018-08-27T15:42:34.009Z,21.20
2018-08-27T15:45:07.856Z,21.10
2018-08-27T15:47:37.368Z,21.00
2018-08-27T15:50:06.395Z,20.90
2018-08-27T15:52:34.750Z,20.70
2018-08-27T15:55:03.204Z,20.70
2018-08-27T15:57:31.790Z,20.70
2018-08-27T16:00:00.237Z,20.70
2018-08-27T16:02:28.642Z,20.70
2018-08-27T16:04:57.250Z,20.60
2018-08-27T16:07:25.665Z,20.70
2018-08-27T16:09:54.196Z,20.70
2018-08-27T16:12:22.609Z,20.60
2018-08-27T16:14:51.066Z,20.60
2018-08-27T16:17:19.509Z,20.60
2018-08-27T16:19:47.992Z,20.30
2018-08-27T16:22:16.453Z,20.20
2018-08-27T16:24:45.001Z,20.20
2018-08-27T16:27:13.441Z,20.10
2018-08-27T16:29:42.003Z,20.00
2018-08-27T16:32:10.436Z,20.00
2018-08-27T16:34:40.507Z,19.90
2018-08-27T16:37:08.958Z,19.90
2018-08-27T16:39:37.409Z,19.80
2018-08-27T16:42:05.798Z,19.80
2018-08-27T16:44:34.199Z,19.80
2018-08-27T16:47:02.845Z,19.80
2018-08-27T16:49:31.294Z,19.80
2018-08-27T16:51:59.714Z,19.80
2018-08-27T16:54:28.109Z,19.80
2018-08-27T16:56:56.517Z,19.80
2018-08-27T16:59:24.975Z,19.80
2018-08-27T17:01:53.397Z,19.80
2018-08-27T17:04:21.841Z,19.70
2018-08-27T17:06:50.243Z,19.60
2018-08-27T17:09:18.760Z,19.50
2018-08-27T17:11:47.237Z,19.30
2018-08-27T17:14:15.645Z,19.20
2018-08-27T17:16:44.089Z,19.10
2018-08-27T17:19:12.971Z,19.00
2018-08-27T17:21:41.428Z,18.90
2018-08-27T17:24:09.858Z,18.90
2018-08-27T17:26:38.356Z,18.90
2018-08-27T17:29:06.900Z,18.80
2018-08-27T17:31:35.319Z,18.70
2018-08-27T17:34:04.763Z,18.70
2018-08-27T17:36:33.310Z,18.60
2018-08-27T17:39:01.768Z,18.70
2018-08-27T17:41:30.227Z,18.60
2018-08-27T17:43:58.731Z,18.60
2018-08-27T17:46:27.158Z,18.60
2018-08-27T17:48:55.593Z,18.60
2018-08-27T17:51:24.090Z,18.60
2018-08-27T17:53:52.430Z,18.60
2018-08-27T17:56:20.876Z,18.60
2018-08-27T17:58:49.351Z,18.60
2018-08-27T18:01:17.773Z,18.60
2018-08-27T18:03:46.173Z,18.50
2018-08-27T18:06:15.055Z,18.40
2018-08-27T18:08:43.777Z,18.40
2018-08-27T18:11:12.565Z,18.30
2018-08-27T18:16:44.060Z,18.10
2018-08-27T18:19:12.473Z,18.00
2018-08-27T18:21:41.242Z,17.90
2018-08-27T18:24:09.871Z,17.90
2018-08-27T18:26:38.610Z,17.90
2018-08-27T18:29:07.398Z,17.90
2018-08-27T18:31:35.882Z,17.90
2018-08-27T18:34:04.288Z,17.80
2018-08-27T18:36:32.897Z,17.80
2018-08-27T18:39:01.777Z,17.70
2018-08-27T18:41:31.097Z,17.70
2018-08-27T18:44:00.637Z,17.60
2018-08-27T18:46:29.431Z,17.50
2018-08-27T18:48:58.415Z,17.40
2018-08-27T18:51:27.273Z,17.40
2018-08-27T18:53:56.196Z,17.30
2018-08-27T18:56:24.741Z,17.10
2018-08-27T18:58:53.177Z,17.00
2018-08-27T19:01:26.229Z,17.00
2018-08-27T19:03:55.038Z,16.90
2018-08-27T19:06:23.819Z,16.80
2018-08-27T19:08:52.926Z,16.70
2018-08-27T19:11:21.829Z,16.70
2018-08-27T19:13:50.702Z,16.60
2018-08-27T19:16:19.582Z,16.60
2018-08-27T19:18:48.369Z,16.60
2018-08-27T19:21:17.302Z,16.60
2018-08-27T19:23:46.251Z,16.60
2018-08-27T19:26:15.142Z,16.60
2018-08-27T19:28:44.235Z,16.60
2018-08-27T19:31:13.025Z,16.60
2018-08-27T19:33:41.813Z,16.60
2018-08-27T19:36:10.807Z,16.60
2018-08-27T19:38:39.591Z,16.60
2018-08-27T19:41:08.482Z,16.60
2018-08-27T19:43:37.377Z,16.60
2018-08-27T19:46:06.385Z,16.50
2018-08-27T19:48:34.673Z,16.50
2018-08-27T19:51:03.110Z,16.50
2018-08-27T19:53:31.597Z,16.50
2018-08-27T19:56:00.034Z,16.60
2018-08-27T19:58:28.482Z,16.60
2018-08-27T20:00:56.908Z,16.60
2018-08-27T20:03:25.326Z,16.60
2018-08-27T20:05:53.769Z,16.60
2018-08-27T20:08:22.253Z,16.60
2018-08-27T20:10:50.738Z,16.70
2018-08-27T20:13:19.175Z,16.70
2018-08-27T20:15:47.624Z,16.70
2018-08-27T20:18:16.092Z,16.70
2018-08-27T20:20:44.521Z,16.70
2018-08-27T20:23:13.000Z,16.80
2018-08-27T20:25:41.477Z,16.80
2018-08-27T20:28:09.866Z,16.80
2018-08-27T20:30:38.281Z,16.80
2018-08-27T20:33:06.779Z,16.80
2018-08-27T20:35:35.504Z,16.80
2018-08-27T20:38:03.976Z,16.80
2018-08-27T20:40:32.402Z,16.80
2018-08-27T20:43:00.944Z,16.80
2018-08-27T20:45:29.467Z,16.80
2018-08-27T20:47:57.993Z,16.70
2018-08-27T20:50:26.603Z,16.70
2018-08-27T20:52:54.993Z,16.80
2018-08-27T20:55:23.770Z,16.70
2018-08-27T20:57:52.161Z,16.70
2018-08-27T21:00:20.696Z,16.70
2018-08-27T21:02:49.351Z,16.70
2018-08-27T21:05:17.725Z,16.60
2018-08-27T21:07:46.145Z,16.60
2018-08-27T21:10:14.714Z,16.70
2018-08-27T21:12:43.110Z,16.70
2018-08-27T21:15:15.792Z,16.60
2018-08-27T21:17:45.781Z,16.70
2018-08-27T21:20:15.097Z,16.70
2018-08-27T21:22:43.678Z,16.60
2018-08-27T21:25:12.966Z,16.70
2018-08-27T21:27:42.169Z,16.70
2018-08-27T21:30:12.516Z,16.70
2018-08-27T21:32:41.032Z,16.60
2018-08-27T21:35:09.731Z,16.60
2018-08-27T21:37:38.140Z,16.70
2018-08-27T21:40:06.633Z,16.70
2018-08-27T21:42:35.327Z,16.70
2018-08-27T21:45:03.927Z,16.70
2018-08-27T21:47:32.392Z,16.80
2018-08-27T21:50:01.075Z,16.80
2018-08-27T21:52:30.292Z,16.80
2018-08-27T21:54:58.936Z,16.80
2018-08-27T21:57:27.533Z,16.80
2018-08-27T21:59:55.986Z,16.90
2018-08-27T22:02:29.977Z,16.90
2018-08-27T22:04:58.441Z,16.90
2018-08-27T22:07:27.024Z,17.00
2018-08-27T22:09:55.560Z,16.90
2018-08-27T22:12:24.284Z,16.90
2018-08-27T22:14:52.708Z,16.80
2018-08-27T22:17:21.158Z,16.80
2018-08-27T22:19:49.592Z,16.70
2018-08-27T22:22:18.097Z,16.60
2018-08-27T22:24:46.752Z,16.60
2018-08-27T22:27:15.664Z,16.50
2018-08-27T22:29:44.090Z,16.50
2018-08-27T22:32:12.509Z,16.40
2018-08-27T22:34:40.941Z,16.30
2018-08-27T22:37:09.344Z,16.30
2018-08-27T22:39:37.761Z,16.30
2018-08-27T22:42:06.452Z,16.20
2018-08-27T22:44:34.880Z,16.20
2018-08-27T22:47:03.564Z,16.20
2018-08-27T22:49:31.933Z,16.20
2018-08-27T22:52:00.592Z,16.20
2018-08-27T22:54:29.056Z,16.20
2018-08-27T22:56:57.452Z,16.20
2018-08-27T22:59:26.096Z,16.20
2018-08-27T23:01:54.508Z,16.20
2018-08-27T23:04:28.053Z,16.10
2018-08-27T23:06:56.471Z,16.10
2018-08-27T23:09:24.856Z,16.10
2018-08-27T23:11:53.276Z,16.10
2018-08-27T23:14:21.695Z,16.20
2018-08-27T23:16:50.089Z,16.20
2018-08-27T23:19:18.488Z,16.20
2018-08-27T23:21:46.875Z,16.20
2018-08-27T23:24:15.260Z,16.20
2018-08-27T23:26:43.708Z,16.10
2018-08-27T23:29:12.101Z,16.10
2018-08-27T23:31:40.528Z,16.10
2018-08-27T23:34:09.083Z,16.10
2018-08-27T23:36:37.468Z,16.00
2018-08-27T23:39:06.746Z,15.90
2018-08-27T23:41:35.144Z,15.90
2018-08-27T23:44:03.534Z,15.90
2018-08-27T23:46:31.976Z,15.90
2018-08-27T23:49:00.359Z,15.80
2018-08-27T23:51:29.679Z,15.70
2018-08-27T23:53:58.293Z,15.70
2018-08-27T23:56:26.692Z,15.60
2018-08-27T23:58:55.088Z,15.60
